Crawfordsville, Indiana
Current Conditions -  °F | °C
As of 5:15 PM on Thursday 18 Dec 2014 (Local Time) from KFKR Reporting Station
Broken Clouds Broken Clouds  
Wind Chill: 28°   Ceiling: 1700
Heat Index: 28°   Visibility: 10mi
Dew Point: 22°   Wind: 0mph
Humidity: 80%   Direction: NA
Pressure: 30.24"   Gusts: NA
Location:  40.04°N, 86.9°W
Report Text: KFKR 182215Z AUTO 00000KT 10SM BKN017 BKN055 M02/M05 A3024 RMK AO2 T10231054
Loading
Personal Weather Stations






























Interactive Weather Map New forecast layout! Learn more

10-Day Weather Forecast

Advertisements
Track Severe Weather on mobile